Delta City, Mississippi
Current Conditions -  °F | °C
As of 2:53 PM on Thursday 20 Nov 2014 (Local Time) from KGLH Reporting Station
Clear Clear  
Wind Chill: 58°   Ceiling: Unl
Heat Index: 58°   Visibility: 10mi
Dew Point: 48°   Wind: 5mph
Humidity: 70%   Direction: 100°E
Pressure: 30.18"   Gusts: NA
Location:  33.07°N, 90.79°W
Report Text: KGLH 202053Z AUTO 10004KT 10SM CLR 14/09 A3018 RMK AO2 SLP227 T01440089 56019
Loading
Personal Weather Stations






























Interactive Weather Map New forecast layout! Learn more

10-Day Weather Forecast

Advertisements
Track Severe Weather on mobile